Shady Brook, North Carolina
Current Conditions -  °F | °C
As of 6:55 PM on Monday 24 Nov 2014 (Local Time) from KJQF Reporting Station
Clear Clear  
Wind Chill: 68°   Ceiling: Unl
Heat Index: 68°   Visibility: 10mi
Dew Point: 61°   Wind: 9mph
Humidity: 78%   Direction: 200°SSW
Pressure: 29.87"   Gusts: 17mph
Location:  35.5043°N, 80.6706°W
Report Text: KJQF 242355Z 20008G15KT 10SM CLR 20/16 A2987
Loading
Personal Weather Stations






























Interactive Weather Map New forecast layout! Learn more

10-Day Weather Forecast

Advertisements
Track Severe Weather on mobile